KEYWKRSW

Guest
Details From KEYW - Key West Intl
To KRSW - Southwest Florida Intl
Flight Number -
Tags generated
Created
Modified
Stats Distance 119 nm / 220 km
Max Altitude 4,900 ft / 1,494 m
Waypoints 3
Social Downloads 0
Likes 0
Share VATSIM

Download

Looking for another format? Having issues loading an existing format? Contact us
Advertisement - Login to hide

Notes

Basic altitude profile: - Ascent Rate: 2500ft/min - Ascent Speed: 250kts - Cruise Altitude: 20000ft - Cruise Speed: 420kts - Descent Rate: 1500ft/min - Descent Speed: 250kts Options: - Use NATs: yes - Use PACOTS: yes - Use low airways: yes - Use high airways: yes

Route

KEYW CYY KRSW

ID Type Via Altitude Latitude Longitude Leg Dist Tot Dist Heading (true) Name
O KEYW APT - 0 ft / 0 m 24.55612˚ -81.75955˚ - 0 nm - Key West Intl
CYY VOR - 4,900 ft / 1,494 m 26.15342˚ -81.77811˚ 95 nm 95 nm 359° / 359° CYPRESS VOR-DME
O KRSW APT - 0 ft / 0 m 26.53616˚ -81.75515˚ 23 nm 118 nm 3° / 3° Southwest Florida Intl

Altitude Profile

Advertisement - Login to hide

KEYW

Details ICAO KEYW (EYW)
Name Key West Intl
Region United States
Timezone America/New_York (UTC-4.0)
Stats Elevation 2 ft / 1 m (AMSL)
Location 24.556124° -81.759546°
Runways 1
Magnetic Variation 5.593° W

METAR

KEYW 230053Z AUTO 10014KT 10SM SCT020 27/24 A3002 RMK AO2 SLP165 T02670244

Decode

TAF

TAF KEYW 222332Z 2300/2324 10015G21KT P6SM FEW020 BKN100

Decode

Departure Runways

ID Width Length Bearing (true) Bearing (mag) Surface Threshold Offset Overrun Length
09 100 ft / 30 m 4,794 ft / 1,461 m 89.38° 94.97° Asphalt 151 ft / 46 m 0 ft / 0 m
27 100 ft / 30 m 4,794 ft / 1,461 m 269.39° 274.98° Asphalt 151 ft / 46 m 0 ft / 0 m

KRSW

Details ICAO KRSW (RSW)
Name Southwest Florida Intl
Region United States
Timezone America/New_York (UTC-4.0)
Stats Elevation 30 ft / 9 m (AMSL)
Location 26.536162° -81.755152°
Runways 1
Magnetic Variation 5.885° W

METAR

KRSW 230053Z 09004KT 10SM CLR 25/21 A3005 RMK AO2 SLP172 T02500211

Decode

TAF

KRSW 222339Z 2300/2324 03005KT P6SM VCSH SCT025 BKN070 FM230300 09005KT P6SM FEW030 SCT100 FM231400 12008KT P6SM SCT015 BKN250 FM231800 15009KT P6SM VCTS SCT025CB BKN070 FM232100 VRB05KT P6SM SCT040 BKN080

Decode

Destination Runways

ID Width Length Bearing (true) Bearing (mag) Surface Threshold Offset Overrun Length
06 150 ft / 46 m 12,004 ft / 3,659 m 53.96° 59.84° Asphalt 0 ft / 0 m 0 ft / 0 m
24 150 ft / 46 m 12,004 ft / 3,659 m 233.97° 239.85° Asphalt 0 ft / 0 m 0 ft / 0 m

Approach Navaids

Runway Type Ident Frequency Range Bearing (true) Bearing (mag) Slope Elevation
06 Localiser IRSW 111.50 MHz 18 nm / 33 km 53.97° 59.85° - 28 ft / 9 m (AMSL)
06 Glidescope IRSW 111.50 MHz 10 nm / 19 km 53.96° 59.85° 3.00° 27 ft / 8 m (AMSL)

Popular Alternatives